sensor_id;sensor_type;location;lat;lon;timestamp;pressure;altitude;pressure_sealevel;temperature;humidity
13235;BME280;6683;48.506;9.050;2023-02-02T00:00:53;98819.69;;;8.25;62.16
13235;BME280;6683;48.506;9.050;2023-02-02T00:03:56;98825.50;;;8.28;62.26
13235;BME280;6683;48.506;9.050;2023-02-02T00:06:59;98824.69;;;8.28;62.06
13235;BME280;6683;48.506;9.050;2023-02-02T00:10:04;98822.84;;;8.28;62.17
13235;BME280;6683;48.506;9.050;2023-02-02T00:13:07;98827.16;;;8.29;62.21
13235;BME280;6683;48.506;9.050;2023-02-02T00:16:39;98822.06;;;8.28;62.33
13235;BME280;6683;48.506;9.050;2023-02-02T00:19:42;98825.50;;;8.28;62.15
13235;BME280;6683;48.506;9.050;2023-02-02T00:22:46;98822.84;;;8.28;62.12
13235;BME280;6683;48.506;9.050;2023-02-02T00:25:51;98820.09;;;8.30;62.12
13235;BME280;6683;48.506;9.050;2023-02-02T00:28:53;98830.63;;;8.30;62.19
13235;BME280;6683;48.506;9.050;2023-02-02T00:31:56;98828.94;;;8.29;62.26
13235;BME280;6683;48.506;9.050;2023-02-02T00:34:58;98837.00;;;8.27;62.19
13235;BME280;6683;48.506;9.050;2023-02-02T00:38:01;98823.84;;;8.27;62.15
13235;BME280;6683;48.506;9.050;2023-02-02T00:41:05;98824.81;;;8.26;62.22
13235;BME280;6683;48.506;9.050;2023-02-02T00:44:08;98829.28;;;8.26;62.28
13235;BME280;6683;48.506;9.050;2023-02-02T00:47:28;98826.75;;;8.24;62.23
13235;BME280;6683;48.506;9.050;2023-02-02T00:50:31;98818.06;;;8.24;62.26
13235;BME280;6683;48.506;9.050;2023-02-02T00:53:33;98816.41;;;8.23;62.20
13235;BME280;6683;48.506;9.050;2023-02-02T00:56:37;98818.06;;;8.24;62.42
13235;BME280;6683;48.506;9.050;2023-02-02T00:59:39;98813.59;;;8.24;62.37
13235;BME280;6683;48.506;9.050;2023-02-02T01:02:42;98812.81;;;8.24;62.45
13235;BME280;6683;48.506;9.050;2023-02-02T01:05:44;98819.69;;;8.25;62.37
13235;BME280;6683;48.506;9.050;2023-02-02T01:08:46;98820.56;;;8.25;62.38
13235;BME280;6683;48.506;9.050;2023-02-02T01:11:50;98808.25;;;8.26;62.37
13235;BME280;6683;48.506;9.050;2023-02-02T01:14:52;98814.97;;;8.28;62.33
13235;BME280;6683;48.506;9.050;2023-02-02T01:17:55;98812.34;;;8.28;62.37
13235;BME280;6683;48.506;9.050;2023-02-02T01:20:57;98812.03;;;8.31;62.37
13235;BME280;6683;48.506;9.050;2023-02-02T01:24:00;98816.34;;;8.32;62.39
13235;BME280;6683;48.506;9.050;2023-02-02T01:27:03;98811.06;;;8.32;62.36
13235;BME280;6683;48.506;9.050;2023-02-02T01:30:07;98817.97;;;8.33;62.36
13235;BME280;6683;48.506;9.050;2023-02-02T01:33:10;98822.25;;;8.34;62.36
13235;BME280;6683;48.506;9.050;2023-02-02T01:36:15;98832.63;;;8.36;62.26
13235;BME280;6683;48.506;9.050;2023-02-02T01:39:18;98817.66;;;8.36;62.01
13235;BME280;6683;48.506;9.050;2023-02-02T01:42:23;98827.53;;;8.34;62.30
13235;BME280;6683;48.506;9.050;2023-02-02T01:45:26;98831.78;;;8.35;62.13
13235;BME280;6683;48.506;9.050;2023-02-02T01:48:31;98824.72;;;8.36;62.32
13235;BME280;6683;48.506;9.050;2023-02-02T01:51:40;98825.69;;;8.35;62.29
13235;BME280;6683;48.506;9.050;2023-02-02T01:54:46;98820.44;;;8.35;62.35
13235;BME280;6683;48.506;9.050;2023-02-02T01:57:55;98819.63;;;8.34;62.11
13235;BME280;6683;48.506;9.050;2023-02-02T02:00:58;98808.28;;;8.34;62.37
13235;BME280;6683;48.506;9.050;2023-02-02T02:04:01;98805.47;;;8.35;62.40
13235;BME280;6683;48.506;9.050;2023-02-02T02:07:05;98812.53;;;8.35;62.38
13235;BME280;6683;48.506;9.050;2023-02-02T02:10:09;98803.69;;;8.36;62.24
13235;BME280;6683;48.506;9.050;2023-02-02T02:13:14;98810.75;;;8.35;62.41
13235;BME280;6683;48.506;9.050;2023-02-02T02:16:23;98814.19;;;8.36;62.45
13235;BME280;6683;48.506;9.050;2023-02-02T02:24:35;98803.69;;;8.36;62.31
13235;BME280;6683;48.506;9.050;2023-02-02T02:28:35;98793.31;;;8.34;62.35
13235;BME280;6683;48.506;9.050;2023-02-02T02:32:03;98798.88;;;8.31;62.39
13235;BME280;6683;48.506;9.050;2023-02-02T02:35:14;98805.81;;;8.32;62.52
13235;BME280;6683;48.506;9.050;2023-02-02T02:38:31;98790.03;;;8.32;62.33
13235;BME280;6683;48.506;9.050;2023-02-02T02:41:42;98784.91;;;8.31;62.56
13235;BME280;6683;48.506;9.050;2023-02-02T02:44:47;98788.66;;;8.28;62.54
13235;BME280;6683;48.506;9.050;2023-02-02T02:47:52;98795.09;;;8.26;62.40
13235;BME280;6683;48.506;9.050;2023-02-02T02:51:05;98791.91;;;8.22;62.78
13235;BME280;6683;48.506;9.050;2023-02-02T02:54:08;98807.16;;;8.19;62.55
13235;BME280;6683;48.506;9.050;2023-02-02T02:57:50;98795.63;;;8.12;62.47
13235;BME280;6683;48.506;9.050;2023-02-02T03:01:06;98785.59;;;8.07;62.71
13235;BME280;6683;48.506;9.050;2023-02-02T03:04:18;98781.75;;;8.01;62.72
13235;BME280;6683;48.506;9.050;2023-02-02T03:07:28;98790.94;;;7.97;62.66
13235;BME280;6683;48.506;9.050;2023-02-02T03:10:33;98798.31;;;7.94;62.72
13235;BME280;6683;48.506;9.050;2023-02-02T03:13:36;98803.88;;;7.91;62.67
13235;BME280;6683;48.506;9.050;2023-02-02T03:16:38;98801.41;;;7.89;62.99
13235;BME280;6683;48.506;9.050;2023-02-02T03:19:42;98803.22;;;7.89;62.79
13235;BME280;6683;48.506;9.050;2023-02-02T03:22:45;98811.94;;;7.89;62.88
13235;BME280;6683;48.506;9.050;2023-02-02T03:25:47;98803.06;;;7.90;63.14
13235;BME280;6683;48.506;9.050;2023-02-02T03:28:54;98795.84;;;7.92;63.11
13235;BME280;6683;48.506;9.050;2023-02-02T03:31:57;98798.31;;;7.94;63.08
13235;BME280;6683;48.506;9.050;2023-02-02T03:35:01;98788.47;;;7.96;63.19
13235;BME280;6683;48.506;9.050;2023-02-02T03:38:03;98786.53;;;7.98;63.22
13235;BME280;6683;48.506;9.050;2023-02-02T03:41:06;98791.63;;;7.99;63.15
13235;BME280;6683;48.506;9.050;2023-02-02T03:44:08;98795.75;;;8.02;63.08
13235;BME280;6683;48.506;9.050;2023-02-02T03:47:10;98810.56;;;8.03;63.13
13235;BME280;6683;48.506;9.050;2023-02-02T03:50:15;98801.00;;;8.02;62.98
13235;BME280;6683;48.506;9.050;2023-02-02T03:53:18;98805.28;;;8.03;63.15
13235;BME280;6683;48.506;9.050;2023-02-02T03:56:20;98813.00;;;8.04;63.05
13235;BME280;6683;48.506;9.050;2023-02-02T03:59:23;98811.34;;;8.03;63.08
13235;BME280;6683;48.506;9.050;2023-02-02T04:02:25;98808.59;;;8.05;63.25
13235;BME280;6683;48.506;9.050;2023-02-02T04:05:29;98815.47;;;8.06;63.17
13235;BME280;6683;48.506;9.050;2023-02-02T04:08:31;98821.56;;;8.06;63.17
13235;BME280;6683;48.506;9.050;2023-02-02T04:11:34;98813.69;;;8.06;63.09
13235;BME280;6683;48.506;9.050;2023-02-02T04:14:36;98822.41;;;8.07;63.31
13235;BME280;6683;48.506;9.050;2023-02-02T04:17:39;98817.94;;;8.07;63.27
13235;BME280;6683;48.506;9.050;2023-02-02T04:20:43;98825.03;;;8.07;63.33
13235;BME280;6683;48.506;9.050;2023-02-02T04:23:46;98826.66;;;8.08;63.32
13235;BME280;6683;48.506;9.050;2023-02-02T04:26:49;98835.22;;;8.10;63.49
13235;BME280;6683;48.506;9.050;2023-02-02T04:29:52;98842.94;;;8.12;63.36
13235;BME280;6683;48.506;9.050;2023-02-02T04:32:55;98838.34;;;8.14;62.96
13235;BME280;6683;48.506;9.050;2023-02-02T04:35:58;98842.66;;;8.15;63.19
13235;BME280;6683;48.506;9.050;2023-02-02T04:39:01;98835.44;;;8.17;63.24
13235;BME280;6683;48.506;9.050;2023-02-02T04:42:03;98837.91;;;8.18;63.56
13235;BME280;6683;48.506;9.050;2023-02-02T04:45:07;98841.19;;;8.20;63.39
13235;BME280;6683;48.506;9.050;2023-02-02T04:48:09;98843.69;;;8.22;63.40
13235;BME280;6683;48.506;9.050;2023-02-02T04:51:14;98848.78;;;8.23;63.39
13235;BME280;6683;48.506;9.050;2023-02-02T04:54:18;98850.41;;;8.24;63.11
13235;BME280;6683;48.506;9.050;2023-02-02T04:57:21;98849.47;;;8.25;63.38
13235;BME280;6683;48.506;9.050;2023-02-02T05:00:23;98853.03;;;8.24;63.39
13235;BME280;6683;48.506;9.050;2023-02-02T05:03:25;98854.88;;;8.24;63.31
13235;BME280;6683;48.506;9.050;2023-02-02T05:06:29;98855.00;;;8.22;63.31
13235;BME280;6683;48.506;9.050;2023-02-02T05:09:32;98851.56;;;8.22;63.29
13235;BME280;6683;48.506;9.050;2023-02-02T05:12:34;98848.41;;;8.18;63.14
13235;BME280;6683;48.506;9.050;2023-02-02T05:15:37;98846.91;;;8.16;63.37
13235;BME280;6683;48.506;9.050;2023-02-02T05:18:39;98852.34;;;8.14;63.36
13235;BME280;6683;48.506;9.050;2023-02-02T05:21:43;98850.84;;;8.12;63.44
13235;BME280;6683;48.506;9.050;2023-02-02T05:24:47;98859.56;;;8.12;63.48
13235;BME280;6683;48.506;9.050;2023-02-02T05:27:50;98862.19;;;8.12;63.54
13235;BME280;6683;48.506;9.050;2023-02-02T05:30:53;98860.56;;;8.11;63.37
13235;BME280;6683;48.506;9.050;2023-02-02T05:33:56;98867.59;;;8.11;63.49
13235;BME280;6683;48.506;9.050;2023-02-02T05:36:59;98869.41;;;8.10;63.59
13235;BME280;6683;48.506;9.050;2023-02-02T05:40:02;98872.88;;;8.11;63.51
13235;BME280;6683;48.506;9.050;2023-02-02T05:43:04;98868.44;;;8.11;63.68
13235;BME280;6683;48.506;9.050;2023-02-02T05:46:07;98861.34;;;8.12;63.49
13235;BME280;6683;48.506;9.050;2023-02-02T05:49:12;98865.81;;;8.11;63.75
13235;BME280;6683;48.506;9.050;2023-02-02T05:52:18;98871.88;;;8.12;63.71
13235;BME280;6683;48.506;9.050;2023-02-02T05:55:23;98873.69;;;8.11;63.62
13235;BME280;6683;48.506;9.050;2023-02-02T05:58:25;98879.63;;;8.13;63.88
13235;BME280;6683;48.506;9.050;2023-02-02T06:01:28;98871.75;;;8.13;63.73
13235;BME280;6683;48.506;9.050;2023-02-02T06:04:31;98870.91;;;8.13;63.82
13235;BME280;6683;48.506;9.050;2023-02-02T06:07:35;98875.31;;;8.12;64.13
13235;BME280;6683;48.506;9.050;2023-02-02T06:10:38;98872.53;;;8.14;63.82
13235;BME280;6683;48.506;9.050;2023-02-02T06:13:41;98873.38;;;8.14;63.87
13235;BME280;6683;48.506;9.050;2023-02-02T06:16:44;98882.25;;;8.13;63.77
13235;BME280;6683;48.506;9.050;2023-02-02T06:19:47;98885.84;;;8.12;63.92
13235;BME280;6683;48.506;9.050;2023-02-02T06:22:50;98892.09;;;8.11;63.83
13235;BME280;6683;48.506;9.050;2023-02-02T06:25:53;98895.69;;;8.10;64.21
13235;BME280;6683;48.506;9.050;2023-02-02T06:28:55;98913.25;;;8.09;63.90
13235;BME280;6683;48.506;9.050;2023-02-02T06:31:58;98905.53;;;8.08;64.14
13235;BME280;6683;48.506;9.050;2023-02-02T06:35:00;98908.34;;;8.06;64.32
13235;BME280;6683;48.506;9.050;2023-02-02T06:38:04;98901.94;;;8.09;64.17
13235;BME280;6683;48.506;9.050;2023-02-02T06:41:06;98919.34;;;8.10;64.38
13235;BME280;6683;48.506;9.050;2023-02-02T06:44:09;98906.88;;;8.12;64.14
13235;BME280;6683;48.506;9.050;2023-02-02T06:47:11;98912.81;;;8.14;64.32
13235;BME280;6683;48.506;9.050;2023-02-02T06:50:13;98917.09;;;8.15;64.27
13235;BME280;6683;48.506;9.050;2023-02-02T06:53:17;98913.47;;;8.16;64.44
13235;BME280;6683;48.506;9.050;2023-02-02T06:56:23;98917.78;;;8.17;64.38
13235;BME280;6683;48.506;9.050;2023-02-02T06:59:25;98915.81;;;8.19;64.46
13235;BME280;6683;48.506;9.050;2023-02-02T07:02:28;98920.91;;;8.21;64.50
13235;BME280;6683;48.506;9.050;2023-02-02T07:05:31;98917.16;;;8.23;64.46
13235;BME280;6683;48.506;9.050;2023-02-02T07:08:34;98920.50;;;8.25;64.51
13235;BME280;6683;48.506;9.050;2023-02-02T07:11:37;98920.31;;;8.27;64.46
13235;BME280;6683;48.506;9.050;2023-02-02T07:14:39;98924.75;;;8.26;64.42
13235;BME280;6683;48.506;9.050;2023-02-02T07:17:42;98923.78;;;8.27;64.35
13235;BME280;6683;48.506;9.050;2023-02-02T07:20:44;98914.91;;;8.28;64.56
13235;BME280;6683;48.506;9.050;2023-02-02T07:23:48;98921.00;;;8.29;64.36
13235;BME280;6683;48.506;9.050;2023-02-02T07:26:51;98918.25;;;8.30;64.47
13235;BME280;6683;48.506;9.050;2023-02-02T07:29:53;98918.25;;;8.30;64.44
13235;BME280;6683;48.506;9.050;2023-02-02T07:32:55;98921.53;;;8.32;64.61
13235;BME280;6683;48.506;9.050;2023-02-02T07:36:00;98920.38;;;8.35;64.58
13235;BME280;6683;48.506;9.050;2023-02-02T07:39:04;98928.13;;;8.36;64.43
13235;BME280;6683;48.506;9.050;2023-02-02T07:42:10;98939.47;;;8.37;64.77
13235;BME280;6683;48.506;9.050;2023-02-02T07:45:12;98934.88;;;8.39;64.51
13235;BME280;6683;48.506;9.050;2023-02-02T07:48:15;98937.38;;;8.40;64.50
13235;BME280;6683;48.506;9.050;2023-02-02T07:51:18;98940.66;;;8.42;64.59
13235;BME280;6683;48.506;9.050;2023-02-02T07:54:22;98941.47;;;8.43;64.48
13235;BME280;6683;48.506;9.050;2023-02-02T07:57:25;98943.97;;;8.44;64.41
13235;BME280;6683;48.506;9.050;2023-02-02T08:00:27;98953.50;;;8.45;64.54
13235;BME280;6683;48.506;9.050;2023-02-02T08:03:30;98955.16;;;8.46;64.40
13235;BME280;6683;48.506;9.050;2023-02-02T08:06:35;98949.91;;;8.46;64.62
13235;BME280;6683;48.506;9.050;2023-02-02T08:09:39;98944.47;;;8.48;64.52
13235;BME280;6683;48.506;9.050;2023-02-02T08:12:46;98944.31;;;8.49;64.93
13235;BME280;6683;48.506;9.050;2023-02-02T08:15:49;98945.81;;;8.52;64.44
13235;BME280;6683;48.506;9.050;2023-02-02T08:18:51;98948.28;;;8.53;64.76
13235;BME280;6683;48.506;9.050;2023-02-02T08:21:53;98952.59;;;8.54;64.57
13235;BME280;6683;48.506;9.050;2023-02-02T08:24:57;98948.94;;;8.55;64.63
13235;BME280;6683;48.506;9.050;2023-02-02T08:28:00;98953.25;;;8.56;64.57
13235;BME280;6683;48.506;9.050;2023-02-02T08:31:08;98951.44;;;8.57;64.66
13235;BME280;6683;48.506;9.050;2023-02-02T08:34:11;98952.97;;;8.59;64.60
13235;BME280;6683;48.506;9.050;2023-02-02T08:37:15;98945.06;;;8.59;64.51
13235;BME280;6683;48.506;9.050;2023-02-02T08:40:19;98943.91;;;8.62;64.54
13235;BME280;6683;48.506;9.050;2023-02-02T08:43:22;98935.53;;;8.66;64.75
13235;BME280;6683;48.506;9.050;2023-02-02T08:46:25;98940.50;;;8.69;64.56
13235;BME280;6683;48.506;9.050;2023-02-02T08:49:27;98941.69;;;8.75;64.83
13235;BME280;6683;48.506;9.050;2023-02-02T08:52:29;98948.09;;;8.80;64.50
13235;BME280;6683;48.506;9.050;2023-02-02T08:55:33;98970.38;;;8.86;64.72
13235;BME280;6683;48.506;9.050;2023-02-02T08:58:35;98972.22;;;8.94;64.54
13235;BME280;6683;48.506;9.050;2023-02-02T09:01:38;98978.66;;;8.99;64.28
13235;BME280;6683;48.506;9.050;2023-02-02T09:04:41;98983.44;;;9.04;64.24
13235;BME280;6683;48.506;9.050;2023-02-02T09:07:45;98978.19;;;9.04;64.40
13235;BME280;6683;48.506;9.050;2023-02-02T09:10:50;98996.31;;;9.07;64.38
13235;BME280;6683;48.506;9.050;2023-02-02T09:13:55;99004.03;;;9.08;64.01
13235;BME280;6683;48.506;9.050;2023-02-02T09:16:58;99011.78;;;9.10;64.19
13235;BME280;6683;48.506;9.050;2023-02-02T09:20:00;99015.09;;;9.12;64.17
13235;BME280;6683;48.506;9.050;2023-02-02T09:23:03;99024.66;;;9.13;63.87
13235;BME280;6683;48.506;9.050;2023-02-02T09:26:11;99024.16;;;9.09;63.84
13235;BME280;6683;48.506;9.050;2023-02-02T09:29:16;99017.88;;;9.10;63.99
13235;BME280;6683;48.506;9.050;2023-02-02T09:32:19;99022.47;;;9.08;63.72
13235;BME280;6683;48.506;9.050;2023-02-02T09:35:21;99031.50;;;9.06;63.69
13235;BME280;6683;48.506;9.050;2023-02-02T09:38:24;99027.53;;;9.02;64.06
13235;BME280;6683;48.506;9.050;2023-02-02T09:42:10;99028.16;;;8.96;64.17
13235;BME280;6683;48.506;9.050;2023-02-02T09:45:25;99029.63;;;8.90;64.23
13235;BME280;6683;48.506;9.050;2023-02-02T09:48:35;99038.66;;;8.88;64.37
13235;BME280;6683;48.506;9.050;2023-02-02T09:51:48;99040.78;;;8.84;64.26
13235;BME280;6683;48.506;9.050;2023-02-02T09:54:59;99039.13;;;8.83;64.57
13235;BME280;6683;48.506;9.050;2023-02-02T09:58:12;99037.47;;;8.82;64.81
13235;BME280;6683;48.506;9.050;2023-02-02T10:01:23;99051.31;;;8.84;64.75
13235;BME280;6683;48.506;9.050;2023-02-02T10:04:31;99060.00;;;8.84;65.03
13235;BME280;6683;48.506;9.050;2023-02-02T10:07:39;99058.06;;;8.86;64.73
13235;BME280;6683;48.506;9.050;2023-02-02T10:10:43;99060.56;;;8.88;65.12
13235;BME280;6683;48.506;9.050;2023-02-02T10:13:50;99064.81;;;8.89;65.14
13235;BME280;6683;48.506;9.050;2023-02-02T10:16:55;99056.13;;;8.89;64.98
13235;BME280;6683;48.506;9.050;2023-02-02T10:20:04;99060.69;;;8.86;65.00
13235;BME280;6683;48.506;9.050;2023-02-02T10:23:24;99059.03;;;8.85;65.38
13235;BME280;6683;48.506;9.050;2023-02-02T10:26:35;99058.38;;;8.83;65.27
13235;BME280;6683;48.506;9.050;2023-02-02T10:29:47;99052.44;;;8.81;65.21
13235;BME280;6683;48.506;9.050;2023-02-02T10:33:00;99063.94;;;8.80;65.58
13235;BME280;6683;48.506;9.050;2023-02-02T10:36:15;99058.16;;;8.77;65.54
13235;BME280;6683;48.506;9.050;2023-02-02T10:39:32;99048.47;;;8.77;65.79
13235;BME280;6683;48.506;9.050;2023-02-02T10:42:51;99050.09;;;8.78;65.93
13235;BME280;6683;48.506;9.050;2023-02-02T10:46:16;99043.72;;;8.81;65.86
13235;BME280;6683;48.506;9.050;2023-02-02T10:49:26;99042.56;;;8.83;66.14
13235;BME280;6683;48.506;9.050;2023-02-02T10:52:32;99039.63;;;8.86;66.11
13235;BME280;6683;48.506;9.050;2023-02-02T10:55:39;99042.78;;;8.90;66.08
13235;BME280;6683;48.506;9.050;2023-02-02T10:58:58;99047.44;;;8.96;66.19
13235;BME280;6683;48.506;9.050;2023-02-02T11:02:09;99065.41;;;9.01;66.05
13235;BME280;6683;48.506;9.050;2023-02-02T11:05:19;99062.44;;;9.04;66.15
13235;BME280;6683;48.506;9.050;2023-02-02T11:08:42;99060.34;;;9.07;66.08
13235;BME280;6683;48.506;9.050;2023-02-02T11:11:48;99058.06;;;9.12;66.27
13235;BME280;6683;48.506;9.050;2023-02-02T11:14:58;99056.94;;;9.15;66.18
13235;BME280;6683;48.506;9.050;2023-02-02T11:18:24;99055.78;;;9.17;66.04
13235;BME280;6683;48.506;9.050;2023-02-02T11:21:30;99052.81;;;9.20;66.05
13235;BME280;6683;48.506;9.050;2023-02-02T11:24:40;99052.69;;;9.22;65.83
13235;BME280;6683;48.506;9.050;2023-02-02T11:27:46;99063.72;;;9.25;65.78
13235;BME280;6683;48.506;9.050;2023-02-02T11:30:50;99060.09;;;9.26;65.94
13235;BME280;6683;48.506;9.050;2023-02-02T11:34:09;99049.72;;;9.25;65.88
13235;BME280;6683;48.506;9.050;2023-02-02T11:37:20;99058.47;;;9.25;65.58
13235;BME280;6683;48.506;9.050;2023-02-02T11:40:33;99061.72;;;9.19;65.72
13235;BME280;6683;48.506;9.050;2023-02-02T11:43:39;99069.44;;;9.13;65.89
13235;BME280;6683;48.506;9.050;2023-02-02T11:46:46;99065.00;;;9.13;65.69
13235;BME280;6683;48.506;9.050;2023-02-02T11:49:50;99065.00;;;9.13;65.92
13235;BME280;6683;48.506;9.050;2023-02-02T11:52:55;99055.25;;;9.14;66.18
13235;BME280;6683;48.506;9.050;2023-02-02T11:56:01;99058.56;;;9.16;66.02
13235;BME280;6683;48.506;9.050;2023-02-02T11:59:08;99055.63;;;9.19;65.85
13235;BME280;6683;48.506;9.050;2023-02-02T12:02:29;99058.94;;;9.21;65.95
13235;BME280;6683;48.506;9.050;2023-02-02T12:05:35;99056.00;;;9.24;66.05
13235;BME280;6683;48.506;9.050;2023-02-02T12:08:38;99053.88;;;9.27;65.89
13235;BME280;6683;48.506;9.050;2023-02-02T12:11:52;99058.66;;;9.32;66.07
13235;BME280;6683;48.506;9.050;2023-02-02T12:15:07;99054.72;;;9.36;66.16
13235;BME280;6683;48.506;9.050;2023-02-02T12:18:34;99045.53;;;9.40;66.17
13235;BME280;6683;48.506;9.050;2023-02-02T12:21:52;99053.09;;;9.43;66.03
13235;BME280;6683;48.506;9.050;2023-02-02T12:25:02;99046.19;;;9.42;65.75
13235;BME280;6683;48.506;9.050;2023-02-02T12:28:20;99049.00;;;9.40;66.00
13235;BME280;6683;48.506;9.050;2023-02-02T12:31:36;99044.69;;;9.39;65.93
13235;BME280;6683;48.506;9.050;2023-02-02T12:34:59;99043.84;;;9.39;66.09
13235;BME280;6683;48.506;9.050;2023-02-02T12:38:13;99043.84;;;9.39;65.97
13235;BME280;6683;48.506;9.050;2023-02-02T12:41:33;99046.34;;;9.40;66.03
13235;BME280;6683;48.506;9.050;2023-02-02T12:44:55;99045.34;;;9.41;66.09
13235;BME280;6683;48.506;9.050;2023-02-02T12:48:22;99039.91;;;9.43;65.81
13235;BME280;6683;48.506;9.050;2023-02-02T12:51:42;99038.13;;;9.43;66.00
13235;BME280;6683;48.506;9.050;2023-02-02T12:55:17;99032.22;;;9.49;65.97
13235;BME280;6683;48.506;9.050;2023-02-02T12:58:31;99041.63;;;9.52;66.15
13235;BME280;6683;48.506;9.050;2023-02-02T13:02:00;99036.84;;;9.55;66.03
13235;BME280;6683;48.506;9.050;2023-02-02T13:05:22;99038.03;;;9.61;65.85
13235;BME280;6683;48.506;9.050;2023-02-02T13:08:32;99040.34;;;9.64;65.77
13235;BME280;6683;48.506;9.050;2023-02-02T13:11:43;99049.56;;;9.68;65.85
13235;BME280;6683;48.506;9.050;2023-02-02T13:14:54;99049.94;;;9.73;65.98
13235;BME280;6683;48.506;9.050;2023-02-02T13:18:00;99040.88;;;9.76;65.90
13235;BME280;6683;48.506;9.050;2023-02-02T13:21:09;99043.03;;;9.80;65.81
13235;BME280;6683;48.506;9.050;2023-02-02T13:24:19;99040.25;;;9.82;65.64
13235;BME280;6683;48.506;9.050;2023-02-02T13:27:26;99040.72;;;9.85;65.72
13235;BME280;6683;48.506;9.050;2023-02-02T13:30:32;99044.03;;;9.87;65.70
13235;BME280;6683;48.506;9.050;2023-02-02T13:33:37;99047.34;;;9.89;65.39
13235;BME280;6683;48.506;9.050;2023-02-02T13:36:41;99054.09;;;9.92;65.26
13235;BME280;6683;48.506;9.050;2023-02-02T13:39:52;99062.50;;;9.95;65.46
13235;BME280;6683;48.506;9.050;2023-02-02T13:43:20;99073.22;;;9.94;65.51
13235;BME280;6683;48.506;9.050;2023-02-02T13:46:29;99072.41;;;9.93;65.48
13235;BME280;6683;48.506;9.050;2023-02-02T13:49:39;99075.38;;;9.90;65.04
13235;BME280;6683;48.506;9.050;2023-02-02T13:53:08;99076.69;;;9.86;65.23
13235;BME280;6683;48.506;9.050;2023-02-02T13:56:37;99085.72;;;9.84;65.29
13235;BME280;6683;48.506;9.050;2023-02-02T13:59:53;99083.25;;;9.82;65.21
13235;BME280;6683;48.506;9.050;2023-02-02T14:03:05;99090.50;;;9.80;65.24
13235;BME280;6683;48.506;9.050;2023-02-02T14:06:21;99097.41;;;9.81;65.26
13235;BME280;6683;48.506;9.050;2023-02-02T14:09:27;99099.56;;;9.78;65.23
13235;BME280;6683;48.506;9.050;2023-02-02T14:12:33;99096.91;;;9.78;64.83
13235;BME280;6683;48.506;9.050;2023-02-02T14:15:40;99101.53;;;9.76;65.03
13235;BME280;6683;48.506;9.050;2023-02-02T14:18:54;99101.53;;;9.76;64.95
13235;BME280;6683;48.506;9.050;2023-02-02T14:22:16;99098.06;;;9.75;65.10
13235;BME280;6683;48.506;9.050;2023-02-02T14:26:03;99091.94;;;9.75;65.00
13235;BME280;6683;48.506;9.050;2023-02-02T14:29:34;99090.63;;;9.71;65.18
13235;BME280;6683;48.506;9.050;2023-02-02T14:32:42;99098.34;;;9.72;64.70
13235;BME280;6683;48.506;9.050;2023-02-02T14:36:02;99103.78;;;9.71;64.95
13235;BME280;6683;48.506;9.050;2023-02-02T14:39:18;99102.81;;;9.72;64.97
13235;BME280;6683;48.506;9.050;2023-02-02T14:42:37;99113.38;;;9.72;65.10
13235;BME280;6683;48.506;9.050;2023-02-02T14:46:36;99103.97;;;9.69;64.90
13235;BME280;6683;48.506;9.050;2023-02-02T14:49:40;99120.44;;;9.71;64.97
13235;BME280;6683;48.506;9.050;2023-02-02T14:52:43;99107.09;;;9.73;64.83
13235;BME280;6683;48.506;9.050;2023-02-02T14:55:54;99116.00;;;9.72;64.71
13235;BME280;6683;48.506;9.050;2023-02-02T14:59:00;99120.28;;;9.73;65.12
13235;BME280;6683;48.506;9.050;2023-02-02T15:02:15;99130.31;;;9.69;64.93
13235;BME280;6683;48.506;9.050;2023-02-02T15:05:41;99131.97;;;9.70;64.90
13235;BME280;6683;48.506;9.050;2023-02-02T15:08:46;99131.00;;;9.71;64.50
13235;BME280;6683;48.506;9.050;2023-02-02T15:12:30;99130.31;;;9.69;64.85
13235;BME280;6683;48.506;9.050;2023-02-02T15:15:34;99132.97;;;9.69;64.85
13235;BME280;6683;48.506;9.050;2023-02-02T15:18:42;99140.03;;;9.68;64.54
13235;BME280;6683;48.506;9.050;2023-02-02T15:21:48;99137.22;;;9.70;64.84
13235;BME280;6683;48.506;9.050;2023-02-02T15:24:53;99137.22;;;9.70;64.78
13235;BME280;6683;48.506;9.050;2023-02-02T15:28:01;99136.44;;;9.70;64.77
13235;BME280;6683;48.506;9.050;2023-02-02T15:31:15;99137.41;;;9.68;64.65
13235;BME280;6683;48.506;9.050;2023-02-02T15:34:25;99129.50;;;9.68;64.68
13235;BME280;6683;48.506;9.050;2023-02-02T15:37:38;99135.59;;;9.69;64.52
13235;BME280;6683;48.506;9.050;2023-02-02T15:40:41;99139.72;;;9.72;64.54
13235;BME280;6683;48.506;9.050;2023-02-02T15:43:44;99147.78;;;9.70;64.38
13235;BME280;6683;48.506;9.050;2023-02-02T15:46:48;99150.56;;;9.68;64.41
13235;BME280;6683;48.506;9.050;2023-02-02T15:49:51;99145.47;;;9.67;64.64
13235;BME280;6683;48.506;9.050;2023-02-02T15:52:55;99148.28;;;9.65;64.57
13235;BME280;6683;48.506;9.050;2023-02-02T15:55:58;99142.34;;;9.63;64.24
13235;BME280;6683;48.506;9.050;2023-02-02T15:59:01;99145.94;;;9.62;64.42
13235;BME280;6683;48.506;9.050;2023-02-02T16:02:20;99152.50;;;9.58;64.82
13235;BME280;6683;48.506;9.050;2023-02-02T16:05:39;99158.75;;;9.57;64.54
13235;BME280;6683;48.506;9.050;2023-02-02T16:08:45;99160.72;;;9.55;64.48
13235;BME280;6683;48.506;9.050;2023-02-02T16:11:49;99172.25;;;9.54;64.62
13235;BME280;6683;48.506;9.050;2023-02-02T16:14:53;99175.72;;;9.55;64.69
13235;BME280;6683;48.506;9.050;2023-02-02T16:18:01;99186.28;;;9.55;64.74
13235;BME280;6683;48.506;9.050;2023-02-02T16:21:16;99199.44;;;9.55;64.60
13235;BME280;6683;48.506;9.050;2023-02-02T16:24:25;99210.00;;;9.55;64.77
13235;BME280;6683;48.506;9.050;2023-02-02T16:27:30;99210.97;;;9.54;64.47
13235;BME280;6683;48.506;9.050;2023-02-02T16:30:35;99214.44;;;9.54;64.55
13235;BME280;6683;48.506;9.050;2023-02-02T16:33:41;99227.78;;;9.53;64.78
13235;BME280;6683;48.506;9.050;2023-02-02T16:36:51;99230.53;;;9.51;64.74
13235;BME280;6683;48.506;9.050;2023-02-02T16:40:27;99241.06;;;9.51;64.47
13235;BME280;6683;48.506;9.050;2023-02-02T16:43:30;99236.66;;;9.52;64.35
13235;BME280;6683;48.506;9.050;2023-02-02T16:46:43;99246.34;;;9.51;64.82
13235;BME280;6683;48.506;9.050;2023-02-02T16:49:47;99255.94;;;9.52;64.63
13235;BME280;6683;48.506;9.050;2023-02-02T16:52:51;99245.38;;;9.52;64.77
13235;BME280;6683;48.506;9.050;2023-02-02T16:55:56;99256.75;;;9.53;64.62
13235;BME280;6683;48.506;9.050;2023-02-02T16:59:03;99264.81;;;9.51;64.71
13235;BME280;6683;48.506;9.050;2023-02-02T17:02:21;99272.72;;;9.51;64.57
13235;BME280;6683;48.506;9.050;2023-02-02T17:05:28;99269.25;;;9.51;64.58
13235;BME280;6683;48.506;9.050;2023-02-02T17:08:34;99280.59;;;9.51;64.92